createdAt,value
2022-09-22T00:00:57.137Z,5.75
2022-09-22T00:01:59.035Z,5.53
2022-09-22T00:03:00.784Z,5.08
2022-09-22T00:04:05.851Z,5.16
2022-09-22T00:05:10.200Z,5.71
2022-09-22T00:06:15.329Z,5.30
2022-09-22T00:07:21.384Z,5.57
2022-09-22T00:08:23.096Z,5.69
2022-09-22T00:09:24.695Z,5.05
2022-09-22T00:10:26.378Z,5.53
2022-09-22T00:11:32.577Z,5.68
2022-09-22T00:12:35.532Z,4.96
2022-09-22T00:13:37.158Z,5.48
2022-09-22T00:14:42.187Z,5.61
2022-09-22T00:15:46.781Z,5.38
2022-09-22T00:16:53.991Z,5.63
2022-09-22T00:18:01.079Z,4.76
2022-09-22T00:19:06.541Z,5.61
2022-09-22T00:20:08.668Z,5.59
2022-09-22T00:21:13.631Z,5.03
2022-09-22T00:22:18.583Z,5.20
2022-09-22T00:23:20.532Z,5.36
2022-09-22T00:24:23.629Z,5.43
2022-09-22T00:25:25.208Z,5.39
2022-09-22T00:26:26.798Z,5.42
2022-09-22T00:27:28.487Z,5.56
2022-09-22T00:28:34.308Z,5.01
2022-09-22T00:29:38.060Z,4.84
2022-09-22T00:30:45.054Z,5.28
2022-09-22T00:31:50.248Z,4.66
2022-09-22T00:32:52.054Z,5.34
2022-09-22T00:33:54.949Z,5.49
2022-09-22T00:34:58.141Z,4.68
2022-09-22T00:36:01.000Z,5.49
2022-09-22T00:37:05.125Z,5.54
2022-09-22T00:38:09.758Z,5.30
2022-09-22T00:39:13.801Z,5.32
2022-09-22T00:40:17.764Z,5.36
2022-09-22T00:41:23.866Z,5.55
2022-09-22T00:42:28.618Z,5.01
2022-09-22T00:43:36.881Z,5.10
2022-09-22T00:44:43.564Z,5.15
2022-09-22T00:45:50.131Z,5.37
2022-09-22T00:47:11.959Z,5.44
2022-09-22T00:48:16.454Z,5.44
2022-09-22T00:49:22.922Z,4.80
2022-09-22T00:50:25.261Z,5.55
2022-09-22T00:51:32.464Z,5.10
2022-09-22T00:52:49.022Z,5.52
2022-09-22T00:53:52.341Z,5.49
2022-09-22T00:54:58.590Z,5.29
2022-09-22T00:56:12.257Z,5.30
2022-09-22T00:57:22.607Z,5.43
2022-09-22T00:58:37.666Z,5.06
2022-09-22T00:59:41.357Z,5.18
2022-09-22T01:00:43.534Z,5.14
2022-09-22T01:01:45.549Z,4.72
2022-09-22T01:02:51.271Z,5.13
2022-09-22T01:03:54.322Z,5.40
2022-09-22T01:04:56.965Z,5.32
2022-09-22T01:06:01.996Z,5.31
2022-09-22T01:07:05.040Z,5.11
2022-09-22T01:08:08.062Z,5.20
2022-09-22T01:09:10.891Z,5.02
2022-09-22T01:10:15.203Z,4.92
2022-09-22T01:11:20.851Z,5.12
2022-09-22T01:12:24.755Z,5.17
2022-09-22T01:13:52.645Z,5.06
2022-09-22T01:15:16.052Z,5.16
2022-09-22T01:16:42.031Z,5.19
2022-09-22T01:17:43.798Z,5.05
2022-09-22T01:18:59.173Z,5.01
2022-09-22T01:20:06.151Z,5.17
2022-09-22T01:21:33.657Z,4.70
2022-09-22T01:22:50.215Z,5.10
2022-09-22T01:24:15.683Z,5.09
2022-09-22T01:25:29.239Z,5.08
2022-09-22T01:26:31.046Z,5.08
2022-09-22T01:27:46.685Z,5.10
2022-09-22T01:29:10.088Z,5.15
2022-09-22T01:30:34.165Z,4.55
2022-09-22T01:31:50.801Z,5.18
2022-09-22T01:33:01.794Z,5.21
2022-09-22T01:34:30.003Z,5.23
2022-09-22T01:35:35.583Z,5.25
2022-09-22T01:37:11.763Z,5.22
2022-09-22T01:38:27.232Z,5.18
2022-09-22T01:39:35.656Z,5.18
2022-09-22T01:40:50.501Z,5.01
2022-09-22T01:42:11.079Z,5.09
2022-09-22T01:43:21.687Z,5.04
2022-09-22T01:44:37.279Z,4.76
2022-09-22T01:45:42.123Z,4.86
2022-09-22T01:46:56.982Z,4.80
2022-09-22T01:48:06.590Z,3.99
2022-09-22T01:49:14.524Z,4.75
2022-09-22T01:50:22.202Z,4.71
2022-09-22T01:51:37.657Z,4.69
2022-09-22T01:52:44.253Z,4.79
2022-09-22T01:53:57.154Z,4.88
2022-09-22T01:55:08.513Z,4.44
2022-09-22T01:56:14.914Z,4.90
2022-09-22T01:57:45.491Z,4.85
2022-09-22T01:58:52.787Z,4.83
2022-09-22T02:00:01.576Z,4.63
2022-09-22T02:01:14.259Z,4.65
2022-09-22T02:02:24.979Z,4.80
2022-09-22T02:03:40.954Z,4.78
2022-09-22T02:04:50.863Z,4.74
2022-09-22T02:06:00.549Z,4.45
2022-09-22T02:07:07.888Z,4.43
2022-09-22T02:08:18.474Z,4.77
2022-09-22T02:09:24.067Z,4.77
2022-09-22T02:10:33.966Z,4.16
2022-09-22T02:11:35.757Z,4.09
2022-09-22T02:12:38.603Z,4.75
2022-09-22T02:13:49.047Z,4.76
2022-09-22T02:14:55.902Z,4.08
2022-09-22T02:16:00.447Z,4.48
2022-09-22T02:17:02.904Z,4.71
2022-09-22T02:18:15.583Z,4.81
2022-09-22T02:19:38.092Z,4.83
2022-09-22T02:20:43.751Z,4.46
2022-09-22T02:21:47.433Z,4.83
2022-09-22T02:22:51.702Z,3.52
2022-09-22T02:23:54.301Z,3.82
2022-09-22T02:24:58.828Z,4.01
2022-09-22T02:26:05.578Z,4.75
2022-09-22T02:27:36.511Z,4.86
2022-09-22T02:28:44.049Z,4.83
2022-09-22T02:29:52.683Z,4.80
2022-09-22T02:31:18.593Z,4.63
2022-09-22T02:32:19.416Z,4.77
2022-09-22T02:33:26.299Z,4.80
2022-09-22T02:34:28.612Z,4.59
2022-09-22T02:35:41.147Z,4.49
2022-09-22T02:37:03.577Z,4.70
2022-09-22T02:38:19.938Z,4.63
2022-09-22T02:39:36.028Z,4.13
2022-09-22T02:41:02.949Z,4.71
2022-09-22T02:42:31.457Z,3.42
2022-09-22T02:43:43.406Z,4.52
2022-09-22T02:44:51.971Z,4.35
2022-09-22T02:46:01.130Z,4.39
2022-09-22T02:47:42.279Z,4.67
2022-09-22T02:48:51.541Z,4.65
2022-09-22T02:49:55.141Z,4.32
2022-09-22T02:50:57.107Z,4.33
2022-09-22T02:51:58.785Z,4.55
2022-09-22T02:53:11.257Z,4.60
2022-09-22T02:54:15.023Z,4.00
2022-09-22T02:55:16.646Z,4.50
2022-09-22T02:56:18.253Z,4.62
2022-09-22T02:57:20.886Z,4.39
2022-09-22T02:58:25.256Z,3.75
2022-09-22T02:59:29.855Z,4.13
2022-09-22T03:00:32.988Z,4.59
2022-09-22T03:01:34.925Z,3.88
2022-09-22T03:02:37.201Z,4.38
2022-09-22T03:03:38.742Z,4.48
2022-09-22T03:04:40.472Z,3.84
2022-09-22T03:05:44.230Z,4.01
2022-09-22T03:06:45.836Z,4.30
2022-09-22T03:07:47.569Z,4.41
2022-09-22T03:08:49.238Z,4.59
2022-09-22T03:09:50.805Z,4.36
2022-09-22T03:10:54.052Z,4.06
2022-09-22T03:11:55.925Z,4.48
2022-09-22T03:13:15.431Z,3.99
2022-09-22T03:14:18.364Z,3.74
2022-09-22T03:15:23.913Z,3.79
2022-09-22T03:16:31.504Z,4.40
2022-09-22T03:17:34.207Z,4.37
2022-09-22T03:18:35.803Z,4.25
2022-09-22T03:19:37.428Z,4.49
2022-09-22T03:20:39.068Z,4.26
2022-09-22T03:21:40.781Z,4.35
2022-09-22T03:22:42.760Z,3.17
2022-09-22T03:23:44.354Z,4.41
2022-09-22T03:24:48.870Z,4.47
2022-09-22T03:25:58.484Z,3.94
2022-09-22T03:27:00.169Z,3.74
2022-09-22T03:28:02.637Z,3.83
2022-09-22T03:29:04.897Z,4.08
2022-09-22T03:30:08.344Z,4.47
2022-09-22T03:31:12.121Z,4.55
2022-09-22T03:32:13.829Z,4.54
2022-09-22T03:33:15.676Z,4.18
2022-09-22T03:34:17.498Z,3.88
2022-09-22T03:35:19.212Z,4.48
2022-09-22T03:36:24.616Z,4.39
2022-09-22T03:37:26.605Z,4.54
2022-09-22T03:38:28.474Z,4.35
2022-09-22T03:39:30.071Z,4.52
2022-09-22T03:40:31.958Z,4.15
2022-09-22T03:41:41.072Z,4.16
2022-09-22T03:42:45.665Z,4.36
2022-09-22T03:43:47.277Z,4.50
2022-09-22T03:44:49.038Z,4.55
2022-09-22T03:46:01.053Z,4.62
2022-09-22T03:47:02.735Z,4.44
2022-09-22T03:48:04.291Z,4.52
2022-09-22T03:49:05.916Z,4.18
2022-09-22T03:50:08.615Z,4.16
2022-09-22T03:51:10.401Z,4.47
2022-09-22T03:52:12.104Z,4.34
2022-09-22T03:53:13.890Z,4.34
2022-09-22T03:54:21.687Z,4.03
2022-09-22T03:55:24.624Z,4.02
2022-09-22T03:56:26.520Z,3.78
2022-09-22T03:57:28.234Z,4.07
2022-09-22T03:58:29.867Z,3.72
2022-09-22T03:59:31.774Z,4.35
2022-09-22T04:00:33.470Z,3.89
2022-09-22T04:01:38.400Z,4.09
2022-09-22T04:02:40.668Z,4.53
2022-09-22T04:03:45.005Z,3.92
2022-09-22T04:04:46.881Z,4.38
2022-09-22T04:05:52.131Z,4.55
2022-09-22T04:06:54.597Z,3.85
2022-09-22T04:07:58.923Z,4.49
2022-09-22T04:09:01.470Z,4.40
2022-09-22T04:10:03.824Z,4.36
2022-09-22T04:11:05.950Z,4.30
2022-09-22T04:12:09.862Z,4.21
2022-09-22T04:13:19.389Z,4.31
2022-09-22T04:14:23.509Z,3.82
2022-09-22T04:15:34.004Z,2.83
2022-09-22T04:16:56.874Z,4.26
2022-09-22T04:18:01.616Z,2.90
2022-09-22T04:19:05.309Z,4.07
2022-09-22T04:20:08.915Z,2.94
2022-09-22T04:21:10.911Z,3.82
2022-09-22T04:22:13.221Z,4.10
2022-09-22T04:23:17.597Z,4.28
2022-09-22T04:24:19.692Z,4.09
2022-09-22T04:25:21.416Z,3.41
2022-09-22T04:26:23.341Z,3.45
2022-09-22T04:27:25.222Z,3.61
2022-09-22T04:28:27.009Z,4.17
2022-09-22T04:29:28.620Z,3.65
2022-09-22T04:30:31.733Z,3.89
2022-09-22T04:31:33.388Z,3.81
2022-09-22T04:32:35.017Z,3.48
2022-09-22T04:33:36.999Z,4.28
2022-09-22T04:34:38.763Z,3.79
2022-09-22T04:35:40.605Z,3.75
2022-09-22T04:36:42.297Z,4.10
2022-09-22T04:37:46.398Z,3.67
2022-09-22T04:38:48.156Z,3.64
2022-09-22T04:39:50.354Z,3.94
2022-09-22T04:40:53.245Z,4.09
2022-09-22T04:42:01.155Z,3.26
2022-09-22T04:43:02.985Z,4.07
2022-09-22T04:44:05.181Z,3.90
2022-09-22T04:45:07.375Z,4.04
2022-09-22T04:46:09.058Z,3.89
2022-09-22T04:47:10.664Z,3.92
2022-09-22T04:48:12.239Z,3.45
2022-09-22T04:49:14.159Z,3.77
2022-09-22T04:50:16.885Z,4.04
2022-09-22T04:51:18.656Z,3.87
2022-09-22T04:52:20.496Z,3.33
2022-09-22T04:53:23.435Z,3.18
2022-09-22T04:54:27.346Z,4.00
2022-09-22T04:55:28.959Z,3.09
2022-09-22T04:56:35.968Z,3.94
2022-09-22T04:57:37.890Z,3.44
2022-09-22T04:58:39.713Z,3.37
2022-09-22T04:59:41.274Z,3.51
2022-09-22T05:00:43.386Z,2.87
2022-09-22T05:01:52.790Z,3.41
2022-09-22T05:02:54.837Z,3.80
2022-09-22T05:03:59.418Z,3.77
2022-09-22T05:05:02.374Z,3.92
2022-09-22T05:06:06.110Z,2.61
2022-09-22T05:07:07.908Z,3.67
2022-09-22T05:08:16.996Z,3.33
2022-09-22T05:09:19.222Z,3.57
2022-09-22T05:10:25.151Z,3.88
2022-09-22T05:11:26.754Z,3.86
2022-09-22T05:12:28.731Z,3.58
2022-09-22T05:13:31.047Z,3.71
2022-09-22T05:14:34.784Z,3.55
2022-09-22T05:15:37.510Z,3.53
2022-09-22T05:16:39.173Z,3.19
2022-09-22T05:17:48.989Z,3.53
2022-09-22T05:18:51.212Z,3.84
2022-09-22T05:19:55.805Z,3.85
2022-09-22T05:21:00.093Z,3.68
2022-09-22T05:22:01.789Z,3.90
2022-09-22T05:23:03.477Z,3.83
2022-09-22T05:24:05.541Z,3.60
2022-09-22T05:25:15.178Z,3.93
2022-09-22T05:26:16.793Z,3.10
2022-09-22T05:27:18.739Z,3.26
2022-09-22T05:28:22.868Z,3.66
2022-09-22T05:29:27.878Z,3.86
2022-09-22T05:30:29.912Z,3.93
2022-09-22T05:31:31.559Z,3.76
2022-09-22T05:32:33.389Z,3.78
2022-09-22T05:33:35.184Z,3.41
2022-09-22T05:34:36.793Z,3.76
2022-09-22T05:35:39.501Z,3.38
2022-09-22T05:36:41.176Z,3.88
2022-09-22T05:37:43.763Z,3.86
2022-09-22T05:38:46.666Z,3.59
2022-09-22T05:39:48.214Z,3.94
2022-09-22T05:40:49.882Z,3.99
2022-09-22T05:41:51.516Z,3.21
2022-09-22T05:42:54.014Z,4.05
2022-09-22T05:43:55.645Z,3.40
2022-09-22T05:44:57.830Z,3.97
2022-09-22T05:45:59.582Z,3.42
2022-09-22T05:47:01.184Z,3.29
2022-09-22T05:48:02.781Z,3.91
2022-09-22T05:49:04.535Z,3.89
2022-09-22T05:50:09.685Z,3.98
2022-09-22T05:51:11.403Z,3.54
2022-09-22T05:52:13.203Z,4.12
2022-09-22T05:53:16.774Z,4.14
2022-09-22T05:54:23.113Z,3.68
2022-09-22T05:55:25.166Z,3.98
2022-09-22T05:56:27.148Z,4.27
2022-09-22T05:57:28.844Z,3.93
2022-09-22T05:58:31.749Z,4.06
2022-09-22T05:59:33.263Z,4.38
2022-09-22T06:00:35.365Z,3.92
2022-09-22T06:01:39.153Z,3.68
2022-09-22T06:02:44.778Z,3.74
2022-09-22T06:03:46.475Z,4.02
2022-09-22T06:04:49.869Z,4.66
2022-09-22T06:05:51.724Z,4.72
2022-09-22T06:06:53.209Z,3.91
2022-09-22T06:08:05.783Z,4.72
2022-09-22T06:09:07.785Z,4.96
2022-09-22T06:10:14.739Z,4.90
2022-09-22T06:11:16.546Z,5.34
2022-09-22T06:12:19.002Z,5.23
2022-09-22T06:13:20.686Z,5.07
2022-09-22T06:14:25.226Z,5.39
2022-09-22T06:15:28.693Z,6.21
2022-09-22T06:16:31.749Z,6.45
2022-09-22T06:17:33.347Z,6.56
2022-09-22T06:18:34.957Z,8.01
2022-09-22T06:19:39.842Z,8.15
2022-09-22T06:20:42.092Z,8.68
2022-09-22T06:21:43.739Z,8.93
2022-09-22T06:22:54.874Z,9.13
2022-09-22T06:23:57.522Z,9.69
2022-09-22T06:24:59.280Z,9.98
2022-09-22T06:26:01.076Z,10.32
2022-09-22T06:27:02.677Z,10.88
2022-09-22T06:28:06.580Z,11.27
2022-09-22T06:29:08.492Z,11.69
2022-09-22T06:30:14.396Z,11.84
2022-09-22T06:31:15.975Z,11.43
2022-09-22T06:32:19.587Z,12.44
2022-09-22T06:33:23.948Z,12.37
2022-09-22T06:34:27.191Z,13.04
2022-09-22T06:35:33.794Z,13.21
2022-09-22T06:36:35.564Z,13.29
2022-09-22T06:37:38.527Z,13.74
2022-09-22T06:38:40.114Z,13.13
2022-09-22T06:39:41.968Z,13.93
2022-09-22T06:40:44.635Z,14.00
2022-09-22T06:41:47.128Z,14.85
2022-09-22T06:42:50.510Z,14.93
2022-09-22T06:43:56.096Z,14.05
2022-09-22T06:44:57.648Z,14.07
2022-09-22T06:46:00.393Z,14.54
2022-09-22T06:47:12.621Z,14.98
2022-09-22T06:48:17.472Z,15.67
2022-09-22T06:49:20.148Z,15.70
2022-09-22T06:50:21.857Z,16.07
2022-09-22T06:51:28.753Z,16.70
2022-09-22T06:52:31.044Z,16.89
2022-09-22T06:53:32.723Z,16.74
2022-09-22T06:54:34.435Z,17.19
2022-09-22T06:55:41.678Z,17.42
2022-09-22T06:56:43.377Z,17.71
2022-09-22T06:57:46.162Z,17.71
2022-09-22T06:59:08.754Z,18.00
2022-09-22T07:00:11.988Z,18.28
2022-09-22T07:01:13.568Z,18.24
2022-09-22T07:02:18.054Z,18.89
2022-09-22T07:03:22.022Z,19.42
2022-09-22T07:04:23.579Z,19.27
2022-09-22T07:05:25.320Z,18.94
2022-09-22T07:06:27.042Z,18.79
2022-09-22T07:07:32.723Z,18.93
2022-09-22T07:08:38.616Z,19.92
2022-09-22T07:09:46.757Z,19.71
2022-09-22T07:10:56.296Z,20.71
2022-09-22T07:11:59.176Z,21.13
2022-09-22T07:13:01.053Z,21.46
2022-09-22T07:14:03.226Z,20.80
2022-09-22T07:15:05.397Z,20.71
2022-09-22T07:16:11.829Z,20.37
2022-09-22T07:17:13.674Z,20.27
2022-09-22T07:18:15.934Z,20.80
2022-09-22T07:19:20.341Z,20.87
2022-09-22T07:20:24.503Z,20.73
2022-09-22T07:21:32.914Z,21.07
2022-09-22T07:22:39.262Z,21.55
2022-09-22T07:23:42.081Z,22.22
2022-09-22T07:24:43.650Z,22.55
2022-09-22T07:25:57.263Z,23.06
2022-09-22T07:27:04.336Z,23.35
2022-09-22T07:28:06.204Z,23.35
2022-09-22T07:29:13.235Z,23.35
2022-09-22T07:30:15.221Z,23.21
2022-09-22T07:31:22.963Z,23.89
2022-09-22T07:32:30.222Z,24.10
2022-09-22T07:33:41.859Z,24.52
2022-09-22T07:34:43.907Z,24.95
2022-09-22T07:35:45.598Z,24.49
2022-09-22T07:36:49.170Z,25.47
2022-09-22T07:37:57.224Z,25.40
2022-09-22T07:39:07.475Z,25.24
2022-09-22T07:40:11.994Z,23.67
2022-09-22T07:41:27.478Z,22.76
2022-09-22T07:42:29.112Z,23.43
2022-09-22T07:43:31.272Z,24.17
2022-09-22T07:44:51.652Z,25.05
2022-09-22T07:45:55.805Z,25.50
2022-09-22T07:46:58.150Z,26.05
2022-09-22T07:48:18.394Z,26.17
2022-09-22T07:49:22.112Z,26.16
2022-09-22T07:50:24.762Z,26.09
2022-09-22T07:51:27.503Z,26.42
2022-09-22T07:52:30.227Z,26.28
2022-09-22T07:53:32.967Z,26.72
2022-09-22T07:54:36.963Z,27.01
2022-09-22T07:55:38.678Z,26.79
2022-09-22T07:56:43.303Z,27.52
2022-09-22T07:57:44.944Z,27.35
2022-09-22T07:58:49.965Z,27.71
2022-09-22T07:59:54.453Z,27.44
2022-09-22T08:01:09.084Z,27.16
2022-09-22T08:02:11.547Z,27.29
2022-09-22T08:03:13.159Z,26.48
2022-09-22T08:04:18.864Z,26.91
2022-09-22T08:05:21.574Z,27.11
2022-09-22T08:06:24.043Z,26.45
2022-09-22T08:07:25.665Z,26.48
2022-09-22T08:08:27.416Z,26.70
2022-09-22T08:09:31.669Z,27.07
2022-09-22T08:10:37.881Z,27.26
2022-09-22T08:11:42.263Z,26.84
2022-09-22T08:12:46.368Z,26.91
2022-09-22T08:14:00.045Z,26.51
2022-09-22T08:15:01.649Z,26.72
2022-09-22T08:16:06.199Z,26.95
2022-09-22T08:17:12.234Z,26.88
2022-09-22T08:18:14.281Z,26.15
2022-09-22T08:19:16.016Z,26.92
2022-09-22T08:20:18.792Z,26.48
2022-09-22T08:21:23.526Z,27.09
2022-09-22T08:22:25.091Z,26.44
2022-09-22T08:23:27.332Z,26.64
2022-09-22T08:24:29.000Z,25.70
2022-09-22T08:25:33.475Z,26.30
2022-09-22T08:26:43.694Z,26.45
2022-09-22T08:27:49.213Z,26.70
2022-09-22T08:28:52.565Z,26.82
2022-09-22T08:29:55.055Z,27.41
2022-09-22T08:30:56.673Z,27.33
2022-09-22T08:31:58.303Z,26.87
2022-09-22T08:33:01.712Z,26.99
2022-09-22T08:34:06.186Z,26.68
2022-09-22T08:35:08.988Z,27.11
2022-09-22T08:36:10.708Z,26.91
2022-09-22T08:37:16.832Z,27.22
2022-09-22T08:38:19.006Z,27.33
2022-09-22T08:39:21.977Z,28.07
2022-09-22T08:40:30.794Z,27.41
2022-09-22T08:41:50.253Z,27.77
2022-09-22T08:42:54.350Z,27.82
2022-09-22T08:44:12.328Z,28.18
2022-09-22T08:45:24.831Z,27.94
2022-09-22T08:46:32.223Z,28.24
2022-09-22T08:48:02.466Z,28.32
2022-09-22T08:49:32.345Z,28.45
2022-09-22T08:51:06.003Z,29.05
2022-09-22T08:52:23.799Z,29.00
2022-09-22T08:53:32.249Z,28.14
2022-09-22T08:54:35.276Z,28.93
2022-09-22T08:55:45.394Z,28.83
2022-09-22T08:56:59.297Z,29.07
2022-09-22T08:58:09.217Z,28.46
2022-09-22T08:59:18.712Z,28.84
2022-09-22T09:00:20.809Z,28.60
2022-09-22T09:01:53.334Z,28.72
2022-09-22T09:03:43.033Z,28.82
2022-09-22T09:05:09.233Z,28.82
2022-09-22T09:06:22.850Z,29.17
2022-09-22T09:08:00.134Z,29.71
2022-09-22T09:09:30.928Z,29.86
2022-09-22T09:10:40.988Z,29.45
2022-09-22T09:11:45.505Z,29.77
2022-09-22T09:13:14.259Z,29.25
2022-09-22T09:14:25.677Z,29.32
2022-09-22T09:15:30.097Z,29.67
2022-09-22T09:17:14.443Z,29.12
2022-09-22T09:18:23.212Z,29.27
2022-09-22T09:19:40.828Z,28.75
2022-09-22T09:20:46.183Z,28.95
2022-09-22T09:21:53.215Z,29.48
2022-09-22T09:22:55.967Z,30.23
2022-09-22T09:25:39.332Z,29.91
2022-09-22T09:26:41.478Z,29.85
2022-09-22T09:27:50.241Z,30.12
2022-09-22T09:29:03.534Z,29.47
2022-09-22T09:30:17.983Z,29.40
2022-09-22T09:31:48.979Z,29.81
2022-09-22T09:32:53.925Z,30.28
2022-09-22T09:34:07.695Z,30.46
2022-09-22T09:35:15.931Z,30.08
2022-09-22T09:36:20.609Z,30.07
2022-09-22T09:37:22.375Z,29.79
2022-09-22T09:38:35.701Z,30.09
2022-09-22T09:39:40.015Z,30.27
2022-09-22T09:40:41.933Z,30.67
2022-09-22T09:41:49.193Z,30.90
2022-09-22T09:42:58.677Z,31.34
2022-09-22T09:44:01.608Z,32.00
2022-09-22T09:45:06.546Z,32.07
2022-09-22T09:46:19.755Z,31.87
2022-09-22T09:47:24.307Z,31.48
2022-09-22T09:48:43.467Z,31.61
2022-09-22T09:49:52.822Z,31.44
2022-09-22T09:51:05.347Z,30.63
2022-09-22T09:52:12.339Z,31.40
2022-09-22T09:53:30.435Z,31.75
2022-09-22T09:54:32.298Z,30.84
2022-09-22T09:55:35.300Z,30.99
2022-09-22T09:56:59.759Z,31.09
2022-09-22T09:58:05.545Z,30.94
2022-09-22T09:59:30.842Z,30.38
2022-09-22T10:00:36.156Z,30.60
2022-09-22T10:01:42.349Z,30.51
2022-09-22T10:03:05.914Z,30.61
2022-09-22T10:04:19.022Z,30.43
2022-09-22T10:05:26.639Z,30.24
2022-09-22T10:06:28.651Z,30.53
2022-09-22T10:07:41.455Z,30.12
2022-09-22T10:08:51.616Z,31.17
2022-09-22T10:10:16.384Z,31.35
2022-09-22T10:11:34.218Z,30.72
2022-09-22T10:12:36.952Z,30.91
2022-09-22T10:13:40.651Z,31.21
2022-09-22T10:14:50.379Z,32.02
2022-09-22T10:16:07.433Z,32.18
2022-09-22T10:17:20.380Z,31.48
2022-09-22T10:18:25.123Z,31.98
2022-09-22T10:19:30.052Z,32.47
2022-09-22T10:20:34.101Z,32.21
2022-09-22T10:21:37.624Z,32.35
2022-09-22T10:22:39.972Z,32.60
2022-09-22T10:23:43.429Z,32.29
2022-09-22T10:24:53.993Z,32.58
2022-09-22T10:26:30.295Z,32.11
2022-09-22T10:27:31.962Z,32.62
2022-09-22T10:28:36.417Z,32.31
2022-09-22T10:29:42.084Z,32.49
2022-09-22T10:30:45.217Z,32.88
2022-09-22T10:32:08.202Z,31.67
2022-09-22T10:33:22.152Z,32.56
2022-09-22T10:34:50.715Z,32.24
2022-09-22T10:36:12.898Z,32.84
2022-09-22T10:37:18.853Z,31.57
2022-09-22T10:38:23.026Z,31.68
2022-09-22T10:39:41.013Z,31.25
2022-09-22T10:40:50.084Z,31.14
2022-09-22T10:41:51.994Z,30.45
2022-09-22T10:42:58.364Z,29.73
2022-09-22T10:44:21.250Z,29.70
2022-09-22T10:45:55.651Z,30.94
2022-09-22T10:47:12.060Z,31.49
2022-09-22T10:48:42.390Z,31.93
2022-09-22T10:50:19.037Z,31.81
2022-09-22T10:51:34.135Z,31.95
2022-09-22T10:52:54.409Z,32.78
2022-09-22T10:54:07.847Z,30.47
2022-09-22T10:55:32.040Z,28.98
2022-09-22T10:56:38.757Z,29.33
2022-09-22T10:58:07.093Z,30.98
2022-09-22T10:59:20.802Z,31.47
2022-09-22T11:00:24.495Z,31.85
2022-09-22T11:01:35.151Z,32.03
2022-09-22T11:02:48.823Z,32.04
2022-09-22T11:04:13.556Z,31.63
2022-09-22T11:05:56.542Z,31.71
2022-09-22T11:07:37.454Z,31.00
2022-09-22T11:09:18.205Z,29.91
2022-09-22T11:11:26.077Z,29.50
2022-09-22T11:12:51.206Z,31.98
2022-09-22T11:14:25.121Z,32.82
2022-09-22T11:15:54.191Z,33.97
2022-09-22T11:17:10.480Z,33.13
2022-09-22T11:18:49.722Z,31.48
2022-09-22T11:20:25.569Z,30.63
2022-09-22T11:21:43.758Z,30.49
2022-09-22T11:23:09.880Z,30.81
2022-09-22T11:24:17.100Z,30.63
2022-09-22T11:25:40.526Z,31.26
2022-09-22T11:26:57.282Z,30.28
2022-09-22T11:28:04.613Z,29.78
2022-09-22T11:29:09.455Z,29.29
2022-09-22T11:30:44.445Z,29.07
2022-09-22T11:32:15.548Z,28.65
2022-09-22T11:33:57.151Z,28.77
2022-09-22T11:35:27.352Z,28.86
2022-09-22T11:36:51.583Z,30.59
2022-09-22T11:38:22.682Z,31.28
2022-09-22T11:39:54.425Z,30.97
2022-09-22T11:41:06.444Z,28.87
2022-09-22T11:42:25.041Z,29.67
2022-09-22T11:44:03.831Z,30.04
2022-09-22T11:45:20.556Z,29.40
2022-09-22T11:47:19.919Z,30.66
2022-09-22T11:48:42.755Z,30.90
2022-09-22T11:50:02.279Z,31.17
2022-09-22T11:51:18.292Z,30.37
2022-09-22T11:52:27.581Z,30.83
2022-09-22T11:54:00.783Z,31.28
2022-09-22T11:55:20.681Z,31.79
2022-09-22T11:56:42.260Z,32.02
2022-09-22T11:57:52.352Z,31.80
2022-09-22T11:58:58.092Z,31.40
2022-09-22T12:00:05.756Z,31.63
2022-09-22T12:01:13.489Z,31.36
2022-09-22T12:02:26.400Z,30.58
2022-09-22T12:03:37.430Z,30.05
2022-09-22T12:05:12.672Z,30.51
2022-09-22T12:06:22.520Z,30.03
2022-09-22T12:07:33.498Z,29.85
2022-09-22T12:08:43.242Z,30.84
2022-09-22T12:09:57.437Z,31.36
2022-09-22T12:10:59.941Z,31.71
2022-09-22T12:12:03.696Z,31.31
2022-09-22T12:13:13.015Z,30.63
2022-09-22T12:14:19.373Z,30.69
2022-09-22T12:15:29.570Z,30.43
2022-09-22T12:16:50.615Z,30.09
2022-09-22T12:18:18.135Z,28.99
2022-09-22T12:19:35.033Z,28.89
2022-09-22T12:20:57.151Z,29.43
2022-09-22T12:22:01.603Z,29.70
2022-09-22T12:23:35.621Z,30.53
2022-09-22T12:24:40.044Z,30.61
2022-09-22T12:25:51.568Z,30.19
2022-09-22T12:26:53.833Z,29.47
2022-09-22T12:27:58.769Z,30.29
2022-09-22T12:29:06.704Z,30.44
2022-09-22T12:30:21.484Z,29.69
2022-09-22T12:31:34.987Z,30.93
2022-09-22T12:32:42.770Z,32.13
2022-09-22T12:33:48.871Z,32.41
2022-09-22T12:34:52.006Z,32.27
2022-09-22T12:35:56.006Z,32.87
2022-09-22T12:37:09.363Z,30.84
2022-09-22T12:38:13.125Z,31.62
2022-09-22T12:39:22.634Z,31.24
2022-09-22T12:40:37.366Z,30.58
2022-09-22T12:41:59.917Z,29.39
2022-09-22T12:43:01.775Z,30.32
2022-09-22T12:44:15.876Z,31.56
2022-09-22T12:45:33.261Z,31.41
2022-09-22T12:46:35.496Z,30.75
2022-09-22T12:47:42.332Z,30.16
2022-09-22T12:48:45.893Z,29.93
2022-09-22T12:49:53.697Z,30.15
2022-09-22T12:51:14.874Z,30.51
2022-09-22T12:52:41.302Z,30.47
2022-09-22T12:53:43.959Z,30.08
2022-09-22T12:54:46.896Z,29.94
2022-09-22T12:56:04.468Z,29.96
2022-09-22T12:57:10.390Z,30.15
2022-09-22T12:58:21.065Z,31.10
2022-09-22T12:59:55.630Z,31.40
2022-09-22T13:01:26.218Z,32.14
2022-09-22T13:02:29.384Z,32.27
2022-09-22T13:03:48.667Z,32.06
2022-09-22T13:04:55.846Z,31.72
2022-09-22T13:06:03.381Z,31.42
2022-09-22T13:07:25.257Z,31.22
2022-09-22T13:08:32.876Z,31.43
2022-09-22T13:09:35.827Z,31.40
2022-09-22T13:10:41.583Z,30.91
2022-09-22T13:12:12.150Z,30.82
2022-09-22T13:13:44.175Z,31.65
2022-09-22T13:14:54.486Z,30.34
2022-09-22T13:16:01.786Z,30.37
2022-09-22T13:17:33.596Z,31.92
2022-09-22T13:18:38.476Z,32.63
2022-09-22T13:19:55.139Z,33.18
2022-09-22T13:20:58.498Z,33.26
2022-09-22T13:22:20.148Z,31.95
2022-09-22T13:23:21.833Z,31.14
2022-09-22T13:24:27.487Z,30.95
2022-09-22T13:25:31.044Z,30.85
2022-09-22T13:26:40.622Z,30.29
2022-09-22T13:27:42.554Z,29.35
2022-09-22T13:28:44.191Z,29.65
2022-09-22T13:30:15.078Z,29.86
2022-09-22T13:31:17.745Z,30.01
2022-09-22T13:32:26.658Z,30.05
2022-09-22T13:33:33.321Z,30.77
2022-09-22T13:34:36.698Z,30.51
2022-09-22T13:35:57.343Z,29.94
2022-09-22T13:37:13.692Z,30.38
2022-09-22T13:38:15.535Z,30.19
2022-09-22T13:39:21.076Z,31.04
2022-09-22T13:40:26.973Z,30.92
2022-09-22T13:41:34.363Z,31.47
2022-09-22T13:42:36.847Z,31.94
2022-09-22T13:43:42.275Z,32.67
2022-09-22T13:44:47.769Z,32.15
2022-09-22T13:45:51.466Z,31.53
2022-09-22T13:46:54.414Z,31.92
2022-09-22T13:48:08.186Z,31.10
2022-09-22T13:49:13.523Z,31.72
2022-09-22T13:50:22.438Z,32.00
2022-09-22T13:51:25.871Z,31.92
2022-09-22T13:52:34.391Z,31.75
2022-09-22T13:53:37.446Z,30.79
2022-09-22T13:54:40.475Z,30.79
2022-09-22T13:55:42.748Z,30.46
2022-09-22T13:56:46.286Z,29.81
2022-09-22T13:57:48.419Z,29.65
2022-09-22T13:58:54.391Z,29.52
2022-09-22T13:59:58.681Z,29.31
2022-09-22T14:01:16.202Z,29.44
2022-09-22T14:02:25.958Z,29.62
2022-09-22T14:03:37.029Z,29.23
2022-09-22T14:04:47.854Z,28.79
2022-09-22T14:05:54.008Z,28.46
2022-09-22T14:07:03.642Z,29.12
2022-09-22T14:08:13.013Z,29.20
2022-09-22T14:09:16.880Z,29.63
2022-09-22T14:10:23.766Z,29.31
2022-09-22T14:11:30.876Z,29.13
2022-09-22T14:12:32.475Z,29.91
2022-09-22T14:13:38.290Z,29.59
2022-09-22T14:14:40.271Z,29.47
2022-09-22T14:15:47.591Z,29.04
2022-09-22T14:16:57.175Z,28.60
2022-09-22T14:17:59.884Z,28.67
2022-09-22T14:19:04.515Z,28.29
2022-09-22T14:20:10.848Z,28.17
2022-09-22T14:21:13.080Z,27.93
2022-09-22T14:22:19.274Z,28.87
2022-09-22T14:23:28.153Z,28.91
2022-09-22T14:24:39.099Z,29.18
2022-09-22T14:25:41.249Z,28.83
2022-09-22T14:26:57.164Z,28.86
2022-09-22T14:28:02.453Z,29.01
2022-09-22T14:29:15.170Z,28.78
2022-09-22T14:30:19.155Z,28.85
2022-09-22T14:31:29.307Z,28.51
2022-09-22T14:32:33.961Z,28.15
2022-09-22T14:33:35.617Z,27.44
2022-09-22T14:34:38.602Z,28.40
2022-09-22T14:35:41.582Z,27.91
2022-09-22T14:36:45.377Z,28.40
2022-09-22T14:37:51.831Z,28.29
2022-09-22T14:39:08.902Z,27.73
2022-09-22T14:40:17.611Z,27.33
2022-09-22T14:41:27.801Z,27.23
2022-09-22T14:42:31.853Z,26.70
2022-09-22T14:43:37.802Z,26.87
2022-09-22T14:44:52.727Z,26.93
2022-09-22T14:46:06.079Z,27.25
2022-09-22T14:47:28.434Z,27.79
2022-09-22T14:48:39.352Z,27.44
2022-09-22T14:49:43.429Z,27.06
2022-09-22T14:50:55.091Z,26.24
2022-09-22T14:52:00.539Z,26.04
2022-09-22T14:53:13.260Z,25.72
2022-09-22T14:54:17.422Z,25.46
2022-09-22T14:55:18.971Z,26.02
2022-09-22T14:56:28.191Z,26.25
2022-09-22T14:57:29.800Z,26.16